Dillon, MT

5:07 PM MST on December 21, 2014 (GMT -0700)
Dillon | Change Station
CLOSE
Current Station
Airport
Location: Dillon,
Elevation: 5240 ft
Nearby Weather Stations
Active Advisory: Winter Weather Advisory Active Notice: Local Storm Report

Elev 5240 ft 45.26 °N, 112.55 °W | Updated 14 minutes ago

Partly Cloudy
Partly Cloudy
36 °F
Feels Like 23 °F
N
29
Wind Variable Wind from West
Gusts 40 mph

Today
High -- | Low -- °F
--% Chance of Precip.
Yesterday
High -- | Low -- °F
Precip. -- in
8:06 AM 4:51 PM
Waning Crescent, 0% visible
Pressure 29.76 in
Visibility 10.0 miles
Clouds Few 6000 ft
Few 8000 ft
Windchill 23 °F
Dew Point 26 °F
Humidity 67%
Rainfall 0.01 in
Snow Depth Not available.
UV 0 out of 12
Pollen .10 out of 12
Air Quality Not available.
Flu Activity Not available.
METAR KDLN 212353Z AUTO 26025G35KT 10SM FEW060 FEW080 02/M03 A2974 RMK AO2 PK WND 26035/2348 SLP076 T00221033 10061 20022 53016

More Conditions Fewer Conditions

Pressure 29.76 in
Visibility 10.0 miles
Clouds Few 6000 ft
Few 8000 ft
Windchill 23 °F
Dew Point 26 °F
Humidity 67%
Rainfall 0.01 in
Snow Depth Not available.
UV 0 out of 12
Pollen .10 out of 12
Air Quality Not available.
Flu Activity Not available.
METAR KDLN 212353Z AUTO 26025G35KT 10SM FEW060 FEW080 02/M03 A2974 RMK AO2 PK WND 26035/2348 SLP076 T00221033 10061 20022 53016

More Conditions Fewer Conditions

10-Day Weather Forecast

Almanac

Astronomy

Dec. 21, 2014 Rise Set
Actual Time
Civil Twilight
Nautical Twilight
Astronomical Twilight
Moon
Length of Visible Light
Length of Day
Tomorrow will be .
, % of the Moon is Illuminated

Today's Extremes

State Highs State Lows

Community

WunderPhotos

Upload Photos

1,779,509 photos uploaded!

WunderBlogs® & News

Nearby

Air Quality

  Air Quality AQ Index Pollutant
Not available.

Snow Depth

Station Depth Elevation

Earthquake Activity

City Distance Mag. Time & Date
Minimum magnitude displayed is 2.5.

Coastal Water Temperatures

Place Temperature

Nearby Weather Stations